Time;durP1;ratioP1;P1;durP2;ratioP2;P2;SDS_P1;SDS_P2;PMS_P1;PMS_P2;Temp;Humidity;BMP_temperature;BMP_pressure;BME280_temperature;BME280_humidity;BME280_pressure;Samples;Min_cycle;Max_cycle;Signal;HPM_P1;HPM_P2
2023/12/08 00:00:25;;;;;;;108.25;101.63;;;;;;;0.06;100.00;101540.41;5037430;28;20049;-78
2023/12/08 00:03:19;;;;;;;108.28;101.97;;;;;;;0.09;100.00;101542.78;5041083;28;20102;-72
2023/12/08 00:05:47;;;;;;;92.57;87.38;;;;;;;-0.05;100.00;101536.84;5037129;28;20528;-78
2023/12/08 00:08:14;;;;;;;91.57;86.13;;;;;;;0.08;100.00;101536.72;5030559;28;20053;-77
2023/12/08 00:10:51;;;;;;;99.82;93.93;;;;;;;0.14;100.00;101533.63;5031649;28;20056;-73
2023/12/08 00:13:18;;;;;;;95.40;89.50;;;;;;;0.01;100.00;101532.91;5041128;28;20659;-78
2023/12/08 00:16:09;;;;;;;96.75;90.82;;;;;;;0.02;100.00;101534.56;5046651;28;20044;-72
2023/12/08 00:18:41;;;;;;;98.95;93.07;;;;;;;-0.04;100.00;101535.03;5019775;28;20107;-78
2023/12/08 00:21:14;;;;;;;100.05;93.95;;;;;;;0.01;100.00;101534.72;5036873;28;20056;-72
2023/12/08 00:23:42;;;;;;;114.55;107.65;;;;;;;0.03;100.00;101533.66;5025954;28;20495;-78
2023/12/08 00:26:09;;;;;;;113.93;107.13;;;;;;;-0.02;100.00;101548.84;5042092;28;20061;-78
2023/12/08 00:28:57;;;;;;;104.47;98.40;;;;;;;0.17;100.00;101541.25;5027784;28;20053;-72
2023/12/08 00:31:27;;;;;;;115.93;108.53;;;;;;;0.02;100.00;101534.56;5021494;28;20049;-72
2023/12/08 00:33:56;;;;;;;114.72;108.10;;;;;;;-0.06;100.00;101535.19;5027515;28;20056;-72
2023/12/08 00:36:24;;;;;;;121.07;113.22;;;;;;;0.05;100.00;101542.19;5032430;28;20504;-71
2023/12/08 00:38:51;;;;;;;114.90;107.97;;;;;;;0.01;100.00;101540.75;5023609;28;20053;-72
2023/12/08 00:41:18;;;;;;;91.47;86.35;;;;;;;0.02;100.00;101541.59;5031484;28;20111;-72
2023/12/08 00:43:45;;;;;;;92.38;86.97;;;;;;;-0.03;100.00;101534.09;5025846;28;20050;-72
2023/12/08 00:46:12;;;;;;;36.95;34.25;;;;;;;0.12;100.00;101547.75;5024738;28;20643;-72
2023/12/08 00:48:39;;;;;;;48.63;45.00;;;;;;;0.03;100.00;101551.06;5025427;28;20060;-72
2023/12/08 00:51:07;;;;;;;48.47;44.67;;;;;;;0.07;100.00;101545.50;5028421;28;20061;-72
2023/12/08 00:53:35;;;;;;;47.75;44.00;;;;;;;0.13;100.00;101539.00;5024578;28;20487;-72
2023/12/08 00:56:03;;;;;;;58.78;54.75;;;;;;;0.02;100.00;101536.38;5033624;28;20746;-72
2023/12/08 00:58:30;;;;;;;54.53;50.72;;;;;;;0.00;100.00;101536.50;5021208;28;20084;-72
2023/12/08 01:00:57;;;;;;;46.88;43.25;;;;;;;-0.06;100.00;101536.94;5018195;28;20060;-72
2023/12/08 01:03:24;;;;;;;44.80;41.63;;;;;;;-0.14;100.00;101540.16;5028714;28;20045;-72
2023/12/08 01:05:51;;;;;;;35.58;33.08;;;;;;;-0.10;100.00;101546.78;5033278;28;20045;-72
2023/12/08 01:08:18;;;;;;;38.65;35.75;;;;;;;0.03;100.00;101545.84;5028062;28;20705;-72
2023/12/08 01:10:46;;;;;;;42.97;39.92;;;;;;;0.11;100.00;101548.72;5020774;28;20438;-72
2023/12/08 01:13:13;;;;;;;39.15;36.25;;;;;;;0.06;100.00;101536.03;5020308;28;20431;-72
2023/12/08 01:15:43;;;;;;;43.13;39.90;;;;;;;0.20;100.00;101545.41;5024308;28;20052;-72
2023/12/08 01:18:10;;;;;;;45.53;42.35;;;;;;;0.07;100.00;101539.47;5030567;28;20049;-72
2023/12/08 01:20:37;;;;;;;44.72;41.53;;;;;;;0.10;100.00;101534.00;5022401;28;20056;-72
2023/12/08 01:23:05;;;;;;;47.17;43.78;;;;;;;0.07;100.00;101537.69;5029710;28;20053;-72
2023/12/08 01:25:32;;;;;;;49.00;45.38;;;;;;;0.12;100.00;101542.53;5039134;28;20053;-72
2023/12/08 01:28:00;;;;;;;46.88;43.58;;;;;;;0.06;100.00;101536.03;5016381;28;20060;-72
2023/12/08 01:30:27;;;;;;;45.65;42.42;;;;;;;0.06;100.00;101533.41;5023102;28;20049;-72
2023/12/08 01:32:54;;;;;;;42.90;39.70;;;;;;;-0.01;100.00;101529.59;5024972;28;20135;-72
2023/12/08 01:35:21;;;;;;;47.70;44.03;;;;;;;-0.03;100.00;101534.94;5021677;28;20055;-72
2023/12/08 01:37:48;;;;;;;49.55;46.10;;;;;;;0.03;100.00;101533.66;5025384;28;20053;-72
2023/12/08 01:40:20;;;;;;;34.10;31.58;;;;;;;0.01;100.00;101535.53;5018628;28;20049;-72
2023/12/08 01:42:47;;;;;;;39.33;36.45;;;;;;;-0.02;100.00;101525.31;5024150;28;20049;-72
2023/12/08 01:45:16;;;;;;;46.30;42.92;;;;;;;0.05;100.00;101526.50;5013840;28;20054;-72
2023/12/08 01:47:44;;;;;;;49.20;45.80;;;;;;;0.09;100.00;101525.34;5036314;28;20045;-72
2023/12/08 01:50:12;;;;;;;53.30;49.58;;;;;;;0.11;100.00;101517.38;5028121;28;20058;-72
2023/12/08 01:52:39;;;;;;;44.55;41.13;;;;;;;-0.02;100.00;101520.94;5028113;28;20499;-72
2023/12/08 01:55:07;;;;;;;57.05;53.03;;;;;;;0.03;100.00;101515.38;5017002;28;20061;-72
2023/12/08 01:57:34;;;;;;;47.72;44.33;;;;;;;-0.12;100.00;101516.50;5019485;28;20046;-72
2023/12/08 02:00:01;;;;;;;49.42;46.08;;;;;;;-0.19;100.00;101525.75;5026610;28;20057;-72
2023/12/08 02:02:30;;;;;;;46.42;43.08;;;;;;;0.15;100.00;101524.00;5038707;28;20075;-78
2023/12/08 02:04:59;;;;;;;43.58;40.38;;;;;;;-0.04;100.00;101529.81;5030659;28;20530;-78
2023/12/08 02:07:27;;;;;;;42.25;39.13;;;;;;;-0.10;100.00;101531.13;5030341;28;20170;-77
2023/12/08 02:09:56;;;;;;;43.60;40.60;;;;;;;-0.09;100.00;101531.94;5029164;28;20060;-71
2023/12/08 02:12:23;;;;;;;40.33;37.38;;;;;;;0.17;100.00;101537.78;5019263;28;20439;-78
2023/12/08 02:14:52;;;;;;;43.90;40.70;;;;;;;0.20;100.00;101542.78;5029457;28;20049;-77
2023/12/08 02:17:22;;;;;;;49.00;44.80;;;;;;;0.17;100.00;101548.25;5015779;28;20443;-78
2023/12/08 02:19:52;;;;;;;47.90;44.47;;;;;;;0.22;100.00;101540.91;5027950;28;20042;-78
2023/12/08 02:22:23;;;;;;;41.92;38.83;;;;;;;0.25;100.00;101545.06;5035324;28;20048;-78
2023/12/08 02:24:51;;;;;;;48.95;45.17;;;;;;;0.25;100.00;101545.06;5021342;28;20464;-78
2023/12/08 02:27:18;;;;;;;48.92;44.70;;;;;;;0.35;100.00;101544.22;5029120;28;20056;-78
2023/12/08 02:29:46;;;;;;;44.85;41.58;;;;;;;0.30;100.00;101540.28;5025698;28;20068;-78
2023/12/08 02:32:21;;;;;;;44.47;41.17;;;;;;;0.30;100.00;101535.88;5019232;28;20057;-78
2023/12/08 02:34:49;;;;;;;45.83;42.40;;;;;;;0.19;100.00;101539.34;5025725;28;20053;-78
2023/12/08 02:37:19;;;;;;;47.45;43.92;;;;;;;0.16;100.00;101538.75;5025642;28;20056;-79
2023/12/08 02:39:48;;;;;;;46.67;43.10;;;;;;;0.23;100.00;101538.16;5013480;28;20053;-78
2023/12/08 02:42:18;;;;;;;46.67;43.08;;;;;;;0.26;100.00;101544.09;5018867;28;20041;-78
2023/12/08 02:44:55;;;;;;;40.40;37.40;;;;;;;0.13;100.00;101547.66;5020062;28;20049;-72
2023/12/08 02:47:22;;;;;;;39.03;36.13;;;;;;;0.04;100.00;101534.47;5031944;28;20053;-72
2023/12/08 02:49:49;;;;;;;51.78;48.05;;;;;;;0.16;100.00;101530.91;5022334;28;20056;-72
2023/12/08 02:52:16;;;;;;;41.88;38.88;;;;;;;0.16;100.00;101530.91;5020213;28;20052;-72
2023/12/08 02:54:45;;;;;;;43.22;39.67;;;;;;;0.16;100.00;101536.97;5024547;28;20547;-72
2023/12/08 02:57:13;;;;;;;42.05;38.95;;;;;;;0.24;100.00;101538.97;5024179;28;20431;-72
2023/12/08 02:59:44;;;;;;;46.08;42.75;;;;;;;0.18;100.00;101536.84;5023729;28;20426;-72
2023/12/08 03:02:12;;;;;;;44.00;40.80;;;;;;;0.21;100.00;101539.22;5022243;28;20053;-72
2023/12/08 03:04:38;;;;;;;48.58;45.08;;;;;;;0.19;100.00;101539.34;5023079;28;20052;-72
2023/12/08 03:07:05;;;;;;;42.75;39.50;;;;;;;0.10;100.00;101539.22;5032326;28;20065;-72
2023/12/08 03:09:32;;;;;;;49.00;45.13;;;;;;;0.08;100.00;101547.16;5023789;28;20657;-71
2023/12/08 03:11:59;;;;;;;54.17;49.88;;;;;;;0.21;100.00;101547.06;5025143;28;20045;-71
2023/12/08 03:14:26;;;;;;;52.65;48.95;;;;;;;0.16;100.00;101544.81;5014554;28;21881;-72
2023/12/08 03:16:54;;;;;;;49.85;46.35;;;;;;;0.20;100.00;101553.25;5031805;28;20438;-72
2023/12/08 03:19:21;;;;;;;48.95;45.42;;;;;;;0.22;100.00;101548.72;5013372;28;20054;-71
2023/12/08 03:21:48;;;;;;;47.22;43.83;;;;;;;0.16;100.00;101554.44;5026934;28;20050;-72
2023/12/08 03:24:15;;;;;;;42.85;39.60;;;;;;;0.11;100.00;101548.72;5037028;28;20051;-71
2023/12/08 03:26:42;;;;;;;62.90;58.75;;;;;;;0.17;100.00;101556.09;5028857;28;20064;-72
2023/12/08 03:29:15;;;;;;;63.88;59.47;;;;;;;0.15;100.00;101563.19;5024103;28;20072;-72
2023/12/08 03:31:43;;;;;;;69.35;64.80;;;;;;;0.15;100.00;101555.38;5035476;28;20140;-72
2023/12/08 03:34:11;;;;;;;63.35;59.15;;;;;;;0.06;100.00;101550.84;5037413;28;20065;-72
2023/12/08 03:36:38;;;;;;;76.63;71.85;;;;;;;0.04;100.00;101558.81;5028690;28;20049;-72
2023/12/08 03:39:05;;;;;;;77.85;72.55;;;;;;;0.08;100.00;101554.19;5033663;28;20041;-72
2023/12/08 03:41:32;;;;;;;58.97;54.97;;;;;;;0.05;100.00;101551.81;5026253;28;20075;-72
2023/12/08 03:43:59;;;;;;;64.25;59.45;;;;;;;0.17;100.00;101561.31;5016818;28;20057;-72
2023/12/08 03:46:26;;;;;;;59.65;55.60;;;;;;;-0.02;100.00;101560.09;5026423;28;20429;-72
2023/12/08 03:48:53;;;;;;;51.38;47.90;;;;;;;0.09;100.00;101564.53;5018490;28;20053;-72
2023/12/08 03:51:21;;;;;;;54.33;50.75;;;;;;;0.11;100.00;101554.78;5017041;28;20400;-71
2023/12/08 03:53:48;;;;;;;59.22;55.25;;;;;;;0.09;100.00;101568.91;5025043;28;20053;-72
2023/12/08 03:56:15;;;;;;;61.20;57.15;;;;;;;-0.30;100.00;101556.13;5042755;28;20053;-72
2023/12/08 03:58:42;;;;;;;58.50;54.70;;;;;;;-0.39;100.00;101559.44;5026040;28;20434;-72
2023/12/08 04:01:09;;;;;;;54.83;51.03;;;;;;;-0.40;100.00;101565.59;5033152;28;20041;-72
2023/12/08 04:03:39;;;;;;;56.83;53.13;;;;;;;-0.39;100.00;101556.81;5030987;28;20049;-72
2023/12/08 04:06:07;;;;;;;63.85;59.47;;;;;;;-0.20;100.00;101551.06;5027090;28;20058;-72
2023/12/08 04:08:35;;;;;;;73.47;69.20;;;;;;;-0.23;100.00;101553.88;5028094;28;20180;-72
2023/12/08 04:11:03;;;;;;;76.25;71.85;;;;;;;-0.15;100.00;101551.53;5025079;28;20140;-72
2023/12/08 04:13:29;;;;;;;88.13;83.30;;;;;;;0.09;100.00;101550.59;5026932;28;20050;-72
2023/12/08 04:15:56;;;;;;;64.30;60.60;;;;;;;0.17;100.00;101550.84;5032453;28;20441;-72
2023/12/08 04:18:24;;;;;;;68.80;64.90;;;;;;;0.09;100.00;101551.47;5030738;28;20072;-72
2023/12/08 04:20:51;;;;;;;30.65;28.20;;;;;;;-0.01;100.00;101543.47;5025827;28;20136;-72
2023/12/08 04:23:17;;;;;;;31.83;29.33;;;;;;;-0.10;100.00;101543.34;5034246;28;20123;-72
2023/12/08 04:25:46;;;;;;;32.67;29.90;;;;;;;0.04;100.00;101547.53;5029256;28;20056;-72
2023/12/08 04:28:13;;;;;;;34.35;31.65;;;;;;;0.01;100.00;101547.78;5017143;28;20057;-72
2023/12/08 04:30:42;;;;;;;32.17;29.60;;;;;;;0.06;100.00;101533.41;5027248;28;20442;-72
2023/12/08 04:33:09;;;;;;;28.85;26.50;;;;;;;-0.16;100.00;101544.63;5031284;28;20050;-72
2023/12/08 04:35:36;;;;;;;33.17;30.48;;;;;;;0.06;100.00;101540.41;5012446;28;20058;-72
2023/12/08 04:38:04;;;;;;;35.13;31.13;;;;;;;0.08;100.00;101554.19;5025883;28;20061;-71
2023/12/08 04:40:31;;;;;;;40.33;37.58;;;;;;;0.06;100.00;101556.91;5026322;28;20099;-72
2023/12/08 04:42:59;;;;;;;36.88;34.03;;;;;;;0.22;100.00;101561.81;5029260;28;20055;-72
2023/12/08 04:45:26;;;;;;;38.55;35.72;;;;;;;0.10;100.00;101554.91;5027404;28;20404;-72
2023/12/08 04:47:53;;;;;;;39.17;36.47;;;;;;;0.08;100.00;101557.63;5026349;28;20058;-72
2023/12/08 04:50:20;;;;;;;37.97;35.25;;;;;;;0.04;100.00;101560.59;5037942;28;20057;-72
2023/12/08 04:52:47;;;;;;;41.55;38.40;;;;;;;0.02;100.00;101563.31;5021772;28;20050;-77
2023/12/08 04:55:14;;;;;;;40.13;37.08;;;;;;;0.12;100.00;101563.44;5029233;28;21936;-72
2023/12/08 04:57:44;;;;;;;32.15;29.65;;;;;;;0.05;100.00;101565.69;5013295;28;20077;-78
2023/12/08 05:00:13;;;;;;;33.30;30.90;;;;;;;0.03;100.00;101565.00;5015863;28;20049;-78
2023/12/08 05:02:40;;;;;;;37.75;34.90;;;;;;;2.50;100.00;101566.72;5020099;28;20041;-78
2023/12/08 05:05:08;;;;;;;43.67;40.53;;;;;;;0.52;100.00;101566.44;5026106;28;20072;-78
2023/12/08 05:07:34;;;;;;;38.95;36.15;;;;;;;0.03;100.00;101577.19;5027772;28;20058;-78
2023/12/08 05:10:09;;;;;;;35.80;33.20;;;;;;;0.25;100.00;101573.81;5024709;28;20430;-77
2023/12/08 05:12:36;;;;;;;35.90;33.40;;;;;;;0.18;100.00;101578.63;5026775;28;20132;-78
2023/12/08 05:15:04;;;;;;;32.60;30.20;;;;;;;0.13;100.00;101578.19;5028462;28;20080;-78
2023/12/08 05:17:32;;;;;;;32.45;29.95;;;;;;;0.20;100.00;101580.19;5024245;28;20058;-76
2023/12/08 05:20:02;;;;;;;33.30;30.88;;;;;;;0.20;100.00;101587.19;5033889;28;20466;-77
2023/12/08 05:22:29;;;;;;;35.72;32.97;;;;;;;0.17;100.00;101580.44;5017903;28;20256;-77
2023/12/08 05:25:05;;;;;;;34.33;31.83;;;;;;;0.25;100.00;101589.47;5041288;28;20045;-77
2023/12/08 05:27:32;;;;;;;40.13;37.22;;;;;;;-0.14;100.00;101587.16;4986609;28;20059;-76
2023/12/08 05:29:59;;;;;;;39.25;36.55;;;;;;;-0.04;100.00;101588.09;5053765;28;20053;-77
2023/12/08 05:32:26;;;;;;;36.17;33.47;;;;;;;0.15;100.00;101599.78;5020695;28;20059;-77
2023/12/08 05:34:54;;;;;;;36.17;33.47;;;;;;;0.23;100.00;101595.63;5027293;28;20080;-77
2023/12/08 05:37:45;;;;;;;42.50;39.40;;;;;;;0.21;100.00;101586.25;5033687;28;20053;-71
2023/12/08 05:42:57;;;;;;;45.67;42.58;;;;;;;0.04;100.00;101595.38;5022754;28;20065;-77
2023/12/08 05:45:24;;;;;;;44.42;41.55;;;;;;;0.03;100.00;101592.88;5030990;28;20050;-77
2023/12/08 05:47:53;;;;;;;40.90;38.20;;;;;;;0.14;100.00;101598.94;5041449;28;20458;-77
2023/12/08 05:50:22;;;;;;;36.13;33.72;;;;;;;0.11;100.00;101591.34;5024799;28;20050;-77
2023/12/08 05:52:49;;;;;;;31.90;29.60;;;;;;;0.14;100.00;101588.50;5024718;28;20446;-77
2023/12/08 05:55:17;;;;;;;28.08;25.88;;;;;;;-0.05;100.00;101589.06;5027364;28;20041;-76
2023/12/08 05:57:44;;;;;;;30.85;28.75;;;;;;;-0.04;100.00;101587.28;5027860;28;20056;-77
2023/12/08 06:00:17;;;;;;;29.35;27.30;;;;;;;0.07;100.00;101587.31;5028257;28;20556;-77
2023/12/08 06:09:39;;;;;;;31.23;29.23;;;;;;;0.11;100.00;101596.56;5025693;28;20791;-71
2023/12/08 06:12:07;;;;;;;46.55;43.17;;;;;;;2.82;100.00;101607.69;5034013;28;20049;-72
2023/12/08 06:14:34;;;;;;;29.05;26.98;;;;;;;0.27;100.00;101605.84;5026922;28;20064;-72
2023/12/08 06:17:00;;;;;;;29.50;27.40;;;;;;;0.27;100.00;101603.25;5008490;28;20057;-72
2023/12/08 06:19:29;;;;;;;29.52;27.20;;;;;;;0.34;100.00;101607.06;5011570;28;20049;-72
2023/12/08 06:21:56;;;;;;;36.28;33.60;;;;;;;0.36;100.00;101611.19;5010818;28;20108;-72
2023/12/08 06:24:23;;;;;;;35.40;32.83;;;;;;;0.20;100.00;101618.56;5014578;28;20049;-78
2023/12/08 06:26:51;;;;;;;34.30;31.95;;;;;;;0.18;100.00;101613.47;5013214;28;20439;-79
2023/12/08 06:29:19;;;;;;;33.42;31.30;;;;;;;0.18;100.00;101621.31;5019021;28;20636;-72
2023/12/08 06:31:46;;;;;;;35.67;32.90;;;;;;;0.19;100.00;101620.34;5013001;28;20054;-72
2023/12/08 06:34:13;;;;;;;36.75;33.40;;;;;;;0.05;100.00;101620.53;5017166;28;20050;-72
2023/12/08 06:36:45;;;;;;;31.92;29.63;;;;;;;0.39;100.00;101621.44;5021909;28;20438;-73
2023/12/08 06:39:15;;;;;;;31.48;29.23;;;;;;;0.41;100.00;101623.94;5017263;28;20485;-72
2023/12/08 06:41:42;;;;;;;31.48;29.27;;;;;;;2.32;100.00;101625.16;5015454;28;20046;-72
2023/12/08 06:44:11;;;;;;;39.15;36.25;;;;;;;0.99;100.00;101629.03;5031589;28;20517;-71
2023/12/08 06:46:38;;;;;;;29.95;27.85;;;;;;;0.42;100.00;101623.84;5033776;28;20047;-71
2023/12/08 06:49:07;;;;;;;32.72;29.77;;;;;;;0.31;100.00;101628.22;5035288;28;20754;-71
2023/12/08 06:51:35;;;;;;;31.00;28.67;;;;;;;0.19;100.00;101630.78;5032779;28;20608;-71
2023/12/08 06:54:03;;;;;;;29.92;27.77;;;;;;;0.07;100.00;101636.13;5013832;28;20050;-71
2023/12/08 06:56:30;;;;;;;30.67;28.48;;;;;;;0.14;100.00;101638.13;5018763;28;20061;-71
2023/12/08 06:58:57;;;;;;;31.52;29.15;;;;;;;-0.02;100.00;101635.03;5019339;28;20057;-71
2023/12/08 07:01:26;;;;;;;32.13;29.83;;;;;;;-0.07;100.00;101634.53;5039133;28;20642;-71
2023/12/08 07:03:53;;;;;;;32.10;29.80;;;;;;;0.14;100.00;101642.53;5034473;28;20487;-71
2023/12/08 07:06:22;;;;;;;32.33;29.92;;;;;;;0.22;100.00;101643.63;5029575;28;20406;-71
2023/12/08 07:08:49;;;;;;;31.90;29.58;;;;;;;0.21;100.00;101636.75;5029446;28;20810;-71
2023/12/08 07:11:16;;;;;;;30.60;28.50;;;;;;;0.35;100.00;101642.69;5032142;28;20045;-71
2023/12/08 07:13:43;;;;;;;33.60;31.10;;;;;;;0.28;100.00;101639.72;5024656;28;20063;-71
2023/12/08 07:16:14;;;;;;;38.42;35.05;;;;;;;0.37;100.00;101640.81;5039226;28;20055;-71
2023/12/08 07:18:42;;;;;;;32.75;30.35;;;;;;;0.44;100.00;101650.66;5022956;28;20052;-70
2023/12/08 07:21:16;;;;;;;31.83;29.52;;;;;;;0.32;100.00;101637.69;5027993;28;20088;-71
2023/12/08 07:23:43;;;;;;;28.77;26.70;;;;;;;0.42;100.00;101647.34;5028044;28;20051;-71
2023/12/08 07:26:13;;;;;;;33.47;31.15;;;;;;;0.37;100.00;101646.88;5024288;28;20061;-71
2023/12/08 07:28:41;;;;;;;28.27;26.17;;;;;;;0.18;100.00;101644.81;5032714;28;20053;-71
2023/12/08 07:31:08;;;;;;;27.00;25.10;;;;;;;0.21;100.00;101648.94;5034338;28;20057;-71
2023/12/08 07:33:35;;;;;;;29.63;27.63;;;;;;;0.33;100.00;101637.56;5027750;28;20473;-70
2023/12/08 07:36:04;;;;;;;32.20;30.00;;;;;;;0.41;100.00;101644.84;5025203;28;20049;-70
2023/12/08 07:38:31;;;;;;;29.25;27.05;;;;;;;0.28;100.00;101637.09;5025479;28;20049;-71
2023/12/08 07:41:27;;;;;;;28.58;26.38;;;;;;;0.32;100.00;101641.16;5024359;28;20434;-77
2023/12/08 07:43:57;;;;;;;29.02;26.92;;;;;;;0.26;100.00;101640.78;5022735;28;20042;-77
2023/12/08 07:46:27;;;;;;;28.63;26.52;;;;;;;0.27;100.00;101639.81;5025246;28;20042;-76
2023/12/08 07:48:54;;;;;;;27.38;25.38;;;;;;;0.39;100.00;101644.97;5029053;28;20056;-77
2023/12/08 07:51:23;;;;;;;27.73;25.70;;;;;;;0.40;100.00;101651.84;5029917;28;20053;-70
2023/12/08 07:53:50;;;;;;;34.00;31.60;;;;;;;0.39;100.00;101644.13;5029000;28;20049;-70
2023/12/08 07:56:17;;;;;;;32.45;30.05;;;;;;;0.29;100.00;101646.59;5036278;28;20049;-71
2023/12/08 07:58:45;;;;;;;30.13;27.95;;;;;;;0.32;100.00;101643.75;5033444;28;20053;-77
2023/12/08 08:01:12;;;;;;;31.23;28.85;;;;;;;0.32;100.00;101645.53;5014970;28;20441;-77
2023/12/08 08:03:39;;;;;;;34.90;31.85;;;;;;;0.43;100.00;101646.41;5041860;28;20071;-77
2023/12/08 08:06:16;;;;;;;34.88;32.28;;;;;;;0.71;100.00;101652.09;5032854;28;20050;-76
2023/12/08 08:08:44;;;;;;;29.67;27.38;;;;;;;0.62;100.00;101648.41;5031339;28;20422;-76
2023/12/08 08:11:11;;;;;;;30.98;28.67;;;;;;;0.65;100.00;101648.19;5030731;28;20461;-76
2023/12/08 08:13:38;;;;;;;32.05;29.75;;;;;;;0.57;100.00;101654.94;5017610;28;20053;-77
2023/12/08 08:16:15;;;;;;;29.90;27.40;;;;;;;0.77;100.00;101653.44;5020389;28;20056;-77
2023/12/08 08:18:41;;;;;;;34.80;31.05;;;;;;;0.73;100.00;101655.44;5031030;28;20438;-77
2023/12/08 08:21:15;;;;;;;31.67;29.35;;;;;;;0.80;100.00;101661.03;5032670;28;20052;-77
2023/12/08 08:23:43;;;;;;;30.02;27.83;;;;;;;0.72;100.00;101668.63;5028165;28;20811;-77
2023/12/08 08:26:11;;;;;;;28.75;26.55;;;;;;;0.88;100.00;101669.13;5029197;28;20054;-77
2023/12/08 08:28:38;;;;;;;28.60;26.50;;;;;;;0.61;100.00;101664.25;5034706;28;20719;-77
2023/12/08 08:31:10;;;;;;;29.63;26.80;;;;;;;0.70;100.00;101666.16;5030831;28;20062;-77
2023/12/08 08:33:37;;;;;;;29.95;27.55;;;;;;;0.55;100.00;101667.31;5032482;28;20054;-77
2023/12/08 08:36:05;;;;;;;32.92;30.52;;;;;;;0.62;100.00;101663.28;5025294;28;20119;-76
2023/12/08 08:38:32;;;;;;;31.08;28.63;;;;;;;0.67;100.00;101671.63;5030510;28;20127;-77
2023/12/08 08:41:02;;;;;;;31.35;29.05;;;;;;;0.73;100.00;101673.75;5031370;28;20474;-77
2023/12/08 08:43:30;;;;;;;28.70;26.50;;;;;;;0.79;100.00;101659.38;5027238;28;20144;-77
2023/12/08 08:45:59;;;;;;;32.63;30.23;;;;;;;0.82;100.00;101667.81;5044464;28;20555;-77
2023/12/08 08:48:26;;;;;;;27.55;25.35;;;;;;;0.52;100.00;101654.50;5046717;28;20075;-77
2023/12/08 08:50:53;;;;;;;26.20;24.20;;;;;;;0.79;100.00;101656.75;5019222;28;20057;-76
2023/12/08 08:53:20;;;;;;;27.05;24.85;;;;;;;0.74;100.00;101641.41;5027748;28;20050;-77
2023/12/08 08:55:47;;;;;;;29.40;27.15;;;;;;;0.65;100.00;101649.97;5029812;28;20052;-77
2023/12/08 08:58:14;;;;;;;26.67;24.73;;;;;;;0.59;100.00;101650.44;5030336;28;20057;-77
2023/12/08 09:00:43;;;;;;;26.40;24.40;;;;;;;0.63;100.00;101639.63;5030703;28;20064;-70
2023/12/08 09:03:15;;;;;;;29.17;26.83;;;;;;;0.71;100.00;101641.66;5029494;28;20050;-76
2023/12/08 09:05:42;;;;;;;32.90;30.38;;;;;;;0.72;100.00;101640.69;5030135;28;20050;-71
2023/12/08 09:08:09;;;;;;;31.38;29.00;;;;;;;0.50;100.00;101633.69;5018988;28;20042;-70
2023/12/08 09:10:36;;;;;;;30.52;28.13;;;;;;;0.55;100.00;101639.41;5019131;28;20496;-71
2023/12/08 09:13:03;;;;;;;37.03;33.92;;;;;;;0.73;100.00;101631.06;5029347;28;20045;-71
2023/12/08 09:15:30;;;;;;;35.50;32.70;;;;;;;0.73;100.00;101642.38;5026874;28;20045;-70
2023/12/08 09:17:58;;;;;;;31.38;28.95;;;;;;;0.85;100.00;101636.19;5017080;28;20538;-71
2023/12/08 09:20:25;;;;;;;29.45;27.25;;;;;;;0.59;100.00;101626.91;5013909;28;20065;-71
2023/12/08 09:22:53;;;;;;;30.75;27.90;;;;;;;0.65;100.00;101627.25;5023649;28;20056;-70
2023/12/08 09:25:20;;;;;;;28.63;26.00;;;;;;;0.84;100.00;101615.38;5028461;28;20141;-71
2023/12/08 09:27:46;;;;;;;26.73;24.40;;;;;;;0.87;100.00;101615.94;5032384;28;20057;-71
2023/12/08 09:30:14;;;;;;;26.58;24.58;;;;;;;0.83;100.00;101618.94;5028304;28;20606;-71
2023/12/08 09:32:41;;;;;;;25.85;23.80;;;;;;;0.73;100.00;101623.22;5023448;28;20044;-71
2023/12/08 09:35:09;;;;;;;27.17;25.08;;;;;;;0.85;100.00;101620.50;5038822;28;20466;-71
2023/12/08 09:37:36;;;;;;;27.63;25.35;;;;;;;0.69;100.00;101622.63;5031790;28;20049;-71
2023/12/08 09:40:05;;;;;;;26.52;24.13;;;;;;;0.80;100.00;101621.81;5026401;28;20155;-71
2023/12/08 09:42:37;;;;;;;27.30;25.30;;;;;;;0.78;100.00;101611.44;5025199;28;20069;-71
2023/12/08 09:45:05;;;;;;;27.73;25.63;;;;;;;0.89;100.00;101621.06;5029233;28;20053;-71
2023/12/08 09:47:35;;;;;;;28.90;26.80;;;;;;;0.92;100.00;101610.38;5042927;28;20049;-71
2023/12/08 09:50:03;;;;;;;27.33;25.33;;;;;;;0.74;100.00;101611.81;5017983;28;20136;-71
2023/12/08 09:52:33;;;;;;;26.35;24.35;;;;;;;0.73;100.00;101602.28;5026735;28;20061;-71
2023/12/08 09:55:01;;;;;;;26.17;24.17;;;;;;;0.90;100.00;101588.72;5015259;28;20053;-71
2023/12/08 09:57:29;;;;;;;27.45;25.35;;;;;;;0.84;100.00;101592.66;5012956;28;20042;-71
2023/12/08 09:59:59;;;;;;;28.35;26.15;;;;;;;0.96;100.00;101583.00;5023547;28;20065;-70
2023/12/08 10:02:26;;;;;;;28.33;26.33;;;;;;;0.87;100.00;101581.13;5028526;28;20103;-71
2023/12/08 10:04:52;;;;;;;28.10;26.00;;;;;;;0.78;100.00;101569.59;5019195;28;20054;-71
2023/12/08 10:07:21;;;;;;;28.25;26.15;;;;;;;1.07;100.00;101572.53;5032924;28;20057;-71
2023/12/08 10:09:50;;;;;;;25.92;24.02;;;;;;;0.84;100.00;101573.50;5009340;28;20054;-70
2023/12/08 10:12:17;;;;;;;27.83;25.83;;;;;;;0.98;100.00;101569.81;5017821;28;20087;-71
2023/12/08 10:14:55;;;;;;;31.63;29.42;;;;;;;1.60;100.00;101562.09;5029871;28;20046;-71
2023/12/08 10:17:23;;;;;;;26.65;24.75;;;;;;;1.07;100.00;101567.28;5022220;28;20128;-70
2023/12/08 10:19:52;;;;;;;28.30;25.80;;;;;;;1.10;100.00;101553.97;5019223;28;20406;-71
2023/12/08 10:22:20;;;;;;;30.00;27.85;;;;;;;1.05;100.00;101547.44;5027246;28;20050;-71
2023/12/08 10:24:47;;;;;;;31.30;29.00;;;;;;;0.94;100.00;101557.91;5034769;28;20049;-71
2023/12/08 10:27:15;;;;;;;36.42;33.53;;;;;;;1.42;100.00;101545.25;5032364;28;20801;-70
2023/12/08 10:29:42;;;;;;;30.42;28.02;;;;;;;1.06;100.00;101538.63;5040141;28;20056;-71
2023/12/08 10:32:09;;;;;;;30.27;28.02;;;;;;;1.11;100.00;101539.09;5029843;28;20052;-70
2023/12/08 10:34:39;;;;;;;28.15;26.15;;;;;;;0.95;100.00;101536.88;5037228;28;20053;-70
2023/12/08 10:37:06;;;;;;;29.00;27.10;;;;;;;1.05;100.00;101529.13;5029146;28;20054;-71
2023/12/08 10:39:34;;;;;;;29.40;27.13;;;;;;;1.12;100.00;101532.88;5019918;28;20497;-71
2023/12/08 10:42:01;;;;;;;25.00;23.40;;;;;;;0.99;100.00;101537.47;5017421;28;20053;-70
2023/12/08 10:44:29;;;;;;;25.10;23.50;;;;;;;1.08;100.00;101531.47;5019623;28;20058;-71
2023/12/08 10:46:58;;;;;;;29.63;27.77;;;;;;;1.11;100.00;101524.22;5028938;28;20478;-77
2023/12/08 10:49:27;;;;;;;23.45;21.85;;;;;;;1.06;100.00;101515.06;5015040;28;20053;-77
2023/12/08 10:51:55;;;;;;;33.78;31.77;;;;;;;1.11;100.00;101518.97;5023002;28;20041;-76
2023/12/08 10:54:22;;;;;;;32.50;30.50;;;;;;;1.09;100.00;101517.44;5017025;28;20126;-77
2023/12/08 10:56:50;;;;;;;30.52;28.63;;;;;;;1.28;100.00;101517.63;5017727;28;20050;-76
2023/12/08 10:59:22;;;;;;;32.80;30.63;;;;;;;1.19;100.00;101509.69;5015485;28;20060;-76
2023/12/08 11:01:53;;;;;;;33.22;31.17;;;;;;;1.25;100.00;101503.94;5026767;28;20057;-76
2023/12/08 11:04:26;;;;;;;26.42;24.42;;;;;;;1.35;100.00;101502.22;5023750;28;20058;-76
2023/12/08 11:07:00;;;;;;;27.27;25.17;;;;;;;1.30;100.00;101501.78;5019646;28;20089;-76
2023/12/08 11:09:29;;;;;;;32.10;30.10;;;;;;;1.14;100.00;101496.97;5026022;28;20056;-76
2023/12/08 11:11:58;;;;;;;29.30;27.40;;;;;;;1.02;100.00;101493.56;5027346;28;20057;-77
2023/12/08 11:14:35;;;;;;;31.10;29.10;;;;;;;1.17;100.00;101493.28;5022610;28;20141;-77
2023/12/08 11:17:11;;;;;;;30.60;28.70;;;;;;;1.03;100.00;101495.25;5033185;28;20054;-77
2023/12/08 11:19:39;;;;;;;32.63;30.63;;;;;;;0.95;100.00;101483.72;5030554;28;20533;-76
2023/12/08 11:22:06;;;;;;;30.73;28.40;;;;;;;1.02;100.00;101485.72;5024927;28;20054;-77